Time;durP1;ratioP1;P1;durP2;ratioP2;P2;SDS_P1;SDS_P2;PMS_P1;PMS_P2;Temp;Humidity;BMP_temperature;BMP_pressure;BME280_temperature;BME280_humidity;BME280_pressure;Samples;Min_cycle;Max_cycle;Signal;HPM_P1;HPM_P2
2023/03/10 00:02:22;;;;;;;165.37;44.13;;;0.70;99.90;;;;;;5139175;28;20594;-47
2023/03/10 00:04:53;;;;;;;190.77;43.60;;;0.70;99.90;;;;;;5136536;28;20447;-48
2023/03/10 00:07:23;;;;;;;206.50;48.20;;;0.70;99.90;;;;;;5142681;28;20473;-46
2023/03/10 00:09:54;;;;;;;196.73;46.73;;;0.60;99.90;;;;;;5143708;28;20201;-47
2023/03/10 00:12:26;;;;;;;162.73;43.27;;;0.70;99.90;;;;;;5142929;28;20190;-48
2023/03/10 00:14:57;;;;;;;169.67;41.10;;;0.70;99.90;;;;;;5135786;28;20198;-49
2023/03/10 00:17:28;;;;;;;152.70;40.00;;;0.70;99.90;;;;;;5138835;28;21003;-48
2023/03/10 00:19:58;;;;;;;162.03;42.27;;;0.70;99.90;;;;;;5151687;28;20207;-48
2023/03/10 00:22:29;;;;;;;161.60;39.70;;;0.60;99.90;;;;;;5150678;28;20445;-47
2023/03/10 00:25:00;;;;;;;149.40;40.23;;;0.70;99.90;;;;;;5156021;28;20196;-47
2023/03/10 00:27:30;;;;;;;153.00;41.47;;;0.70;99.90;;;;;;5142047;28;20212;-47
2023/03/10 00:30:01;;;;;;;165.43;41.80;;;0.70;99.90;;;;;;5143795;28;20217;-47
2023/03/10 00:32:34;;;;;;;148.30;37.77;;;0.70;99.90;;;;;;5129235;28;20547;-48
2023/03/10 00:35:06;;;;;;;147.90;37.17;;;0.60;99.90;;;;;;5147863;28;20520;-47
2023/03/10 00:37:37;;;;;;;154.60;39.67;;;0.60;99.90;;;;;;5143630;28;20454;-47
2023/03/10 00:40:10;;;;;;;152.67;39.50;;;0.70;99.90;;;;;;5142888;28;20470;-47
2023/03/10 00:42:41;;;;;;;135.20;38.57;;;0.70;99.90;;;;;;5140308;28;20444;-47
2023/03/10 00:45:14;;;;;;;172.33;41.03;;;0.60;99.90;;;;;;5154936;28;20818;-47
2023/03/10 00:47:45;;;;;;;188.83;42.50;;;0.70;99.90;;;;;;5141582;28;20962;-47
2023/03/10 00:50:16;;;;;;;154.97;38.60;;;0.70;99.90;;;;;;5148582;28;20473;-48
2023/03/10 00:52:46;;;;;;;175.07;41.40;;;0.70;99.90;;;;;;5141811;28;20553;-48
2023/03/10 00:55:17;;;;;;;174.40;42.17;;;0.70;99.90;;;;;;5149291;28;20187;-48
2023/03/10 00:57:48;;;;;;;154.63;39.57;;;0.70;99.90;;;;;;5138008;28;20193;-47
2023/03/10 01:00:19;;;;;;;184.90;42.80;;;0.80;99.90;;;;;;5145545;28;20573;-48
2023/03/10 01:02:51;;;;;;;164.60;39.97;;;0.70;99.90;;;;;;5139901;28;20192;-48
2023/03/10 01:05:22;;;;;;;145.50;41.43;;;0.70;99.90;;;;;;5133833;28;20568;-47
2023/03/10 01:07:52;;;;;;;190.13;44.33;;;0.80;99.90;;;;;;5149994;28;20571;-46
2023/03/10 01:10:23;;;;;;;175.77;45.50;;;0.70;99.90;;;;;;5144383;28;20620;-46
2023/03/10 01:12:54;;;;;;;171.97;43.07;;;0.70;99.90;;;;;;5146840;28;20269;-47
2023/03/10 01:15:24;;;;;;;177.97;42.97;;;0.70;99.90;;;;;;5141748;28;20274;-46
2023/03/10 01:17:55;;;;;;;177.13;42.30;;;0.80;99.90;;;;;;5149325;28;20262;-47
2023/03/10 01:20:25;;;;;;;205.80;46.60;;;0.70;99.90;;;;;;5131973;28;20236;-47
2023/03/10 01:22:56;;;;;;;211.47;45.77;;;0.80;99.90;;;;;;5141352;28;20194;-47
2023/03/10 01:25:28;;;;;;;194.07;44.33;;;0.80;99.90;;;;;;5145554;28;20196;-46
2023/03/10 01:27:58;;;;;;;191.90;43.00;;;0.80;99.90;;;;;;5145395;28;20555;-48
2023/03/10 01:30:29;;;;;;;183.50;43.63;;;0.80;99.90;;;;;;5147229;28;20461;-48
2023/03/10 01:32:59;;;;;;;175.67;42.90;;;0.80;99.90;;;;;;5147066;28;20196;-48
2023/03/10 01:35:30;;;;;;;179.77;43.57;;;0.80;99.90;;;;;;5140321;28;20192;-47
2023/03/10 01:38:01;;;;;;;208.93;46.83;;;0.80;99.90;;;;;;5140029;28;20638;-47
2023/03/10 01:40:32;;;;;;;248.13;47.50;;;0.80;99.90;;;;;;5155440;28;20224;-47
2023/03/10 01:43:15;;;;;;;158.57;39.53;;;0.80;99.90;;;;;;5149108;28;20205;-48
2023/03/10 01:45:45;;;;;;;183.47;42.67;;;0.80;99.90;;;;;;5142091;28;20201;-47
2023/03/10 01:48:16;;;;;;;198.80;44.07;;;0.80;99.90;;;;;;5146752;28;20465;-48
2023/03/10 01:50:52;;;;;;;194.60;42.60;;;0.80;99.90;;;;;;5138095;28;20201;-48
2023/03/10 01:53:25;;;;;;;168.03;41.47;;;0.80;99.90;;;;;;5146234;28;20444;-47
2023/03/10 01:56:01;;;;;;;164.40;42.23;;;0.80;99.90;;;;;;5154586;28;20735;-47
2023/03/10 01:58:37;;;;;;;182.30;40.97;;;0.80;99.90;;;;;;5159346;28;20927;-49
2023/03/10 02:01:10;;;;;;;176.43;42.67;;;0.80;99.90;;;;;;5148602;28;20436;-47
2023/03/10 02:03:56;;;;;;;173.50;41.90;;;0.90;99.90;;;;;;5145469;28;20605;-47
2023/03/10 02:06:26;;;;;;;192.77;42.33;;;0.80;99.90;;;;;;5145314;28;20901;-48
2023/03/10 02:09:00;;;;;;;183.70;41.57;;;0.90;99.90;;;;;;5143906;28;20519;-48
2023/03/10 02:11:31;;;;;;;191.57;40.60;;;0.80;99.90;;;;;;5142581;28;20196;-48
2023/03/10 02:14:05;;;;;;;189.40;42.47;;;0.80;99.90;;;;;;5142537;28;20527;-47
2023/03/10 02:16:35;;;;;;;196.47;42.70;;;0.80;99.90;;;;;;5139760;28;20468;-48
2023/03/10 02:19:15;;;;;;;207.77;42.00;;;0.90;99.90;;;;;;5145740;28;21042;-48
2023/03/10 02:22:04;;;;;;;174.17;40.23;;;0.80;99.90;;;;;;5145074;28;20284;-48
2023/03/10 02:24:48;;;;;;;166.77;38.80;;;0.80;99.90;;;;;;5142230;28;20438;-49
2023/03/10 02:27:30;;;;;;;170.40;40.63;;;0.80;99.90;;;;;;5137005;28;20457;-49
2023/03/10 02:30:27;;;;;;;213.60;42.00;;;0.80;99.90;;;;;;5140551;28;20469;-49
2023/03/10 02:33:03;;;;;;;162.70;42.07;;;0.90;99.90;;;;;;5136797;28;20449;-47
2023/03/10 02:35:34;;;;;;;199.07;41.77;;;0.90;99.90;;;;;;5151590;28;20434;-48
2023/03/10 02:38:05;;;;;;;163.40;40.43;;;0.80;99.90;;;;;;5145826;28;20450;-50
2023/03/10 02:40:46;;;;;;;177.07;41.97;;;0.80;99.90;;;;;;5144452;28;20230;-48
2023/03/10 02:43:30;;;;;;;166.90;40.70;;;0.80;99.90;;;;;;5138642;28;20269;-47
2023/03/10 02:46:03;;;;;;;184.13;43.23;;;0.70;99.90;;;;;;5137783;28;20468;-48
2023/03/10 02:48:37;;;;;;;199.77;40.17;;;0.80;99.90;;;;;;5148164;28;20433;-48
2023/03/10 02:51:30;;;;;;;184.70;40.70;;;0.80;99.90;;;;;;5147588;28;20471;-49
2023/03/10 02:54:02;;;;;;;181.13;43.67;;;0.80;99.90;;;;;;5144284;28;20854;-48
2023/03/10 02:56:33;;;;;;;234.80;44.10;;;0.80;99.90;;;;;;5157289;28;20436;-48
2023/03/10 02:59:05;;;;;;;164.67;39.37;;;0.80;99.90;;;;;;5152519;28;20468;-49
2023/03/10 03:01:36;;;;;;;164.13;38.87;;;0.80;99.90;;;;;;5142059;28;20495;-49
2023/03/10 03:04:07;;;;;;;148.00;37.77;;;0.80;99.90;;;;;;5143202;28;20454;-48
2023/03/10 03:06:39;;;;;;;153.53;38.13;;;0.80;99.90;;;;;;5121947;28;20202;-48
2023/03/10 03:09:10;;;;;;;161.63;40.47;;;0.80;99.90;;;;;;5145210;28;20615;-49
2023/03/10 03:11:41;;;;;;;143.13;36.77;;;0.80;99.90;;;;;;5141720;28;20439;-49
2023/03/10 03:14:11;;;;;;;176.77;39.33;;;0.80;99.90;;;;;;5142547;28;20183;-49
2023/03/10 03:16:42;;;;;;;196.77;40.10;;;0.80;99.90;;;;;;5149071;28;20633;-48
2023/03/10 03:19:12;;;;;;;173.60;40.63;;;0.80;99.90;;;;;;5154890;28;20732;-48
2023/03/10 03:21:48;;;;;;;169.43;37.97;;;0.90;99.90;;;;;;5152372;28;20178;-49
2023/03/10 03:24:22;;;;;;;201.10;38.27;;;0.80;99.90;;;;;;5143785;28;20178;-48
2023/03/10 03:26:52;;;;;;;186.43;38.27;;;0.90;99.90;;;;;;5150570;28;20477;-50
2023/03/10 03:29:23;;;;;;;175.23;36.27;;;0.90;99.90;;;;;;5152114;28;20462;-47
2023/03/10 03:31:55;;;;;;;104.10;30.17;;;0.90;99.90;;;;;;5141317;28;20284;-49
2023/03/10 03:34:26;;;;;;;122.03;33.30;;;0.90;99.90;;;;;;5152557;28;20236;-48
2023/03/10 03:36:56;;;;;;;120.23;32.70;;;0.90;99.90;;;;;;5143934;28;20535;-48
2023/03/10 03:39:27;;;;;;;119.63;33.77;;;0.80;99.90;;;;;;5148619;28;20213;-48
2023/03/10 03:41:57;;;;;;;131.93;33.80;;;0.80;99.90;;;;;;5145277;28;20193;-47
2023/03/10 03:44:28;;;;;;;135.50;35.33;;;0.80;99.90;;;;;;5144811;28;20174;-48
2023/03/10 03:46:59;;;;;;;128.77;33.33;;;0.80;99.90;;;;;;5146158;28;20201;-50
2023/03/10 03:49:29;;;;;;;172.27;36.90;;;0.90;99.90;;;;;;5139683;28;20216;-47
2023/03/10 03:52:00;;;;;;;122.37;33.40;;;0.90;99.90;;;;;;5136403;28;20210;-47
2023/03/10 03:54:31;;;;;;;121.70;33.70;;;0.90;99.90;;;;;;5149641;28;20220;-52
2023/03/10 03:57:02;;;;;;;177.80;37.63;;;0.90;99.90;;;;;;5147415;28;20198;-48
2023/03/10 03:59:34;;;;;;;116.40;31.60;;;0.90;99.90;;;;;;5140042;28;20949;-48
2023/03/10 04:02:04;;;;;;;100.73;30.20;;;0.90;99.90;;;;;;5144877;28;20972;-47
2023/03/10 04:04:35;;;;;;;135.37;33.50;;;0.90;99.90;;;;;;5126241;28;20524;-48
2023/03/10 04:07:06;;;;;;;131.93;32.83;;;0.90;99.90;;;;;;5153714;28;20256;-48
2023/03/10 04:09:41;;;;;;;106.23;32.70;;;0.90;99.90;;;;;;5150739;28;20205;-47
2023/03/10 04:12:11;;;;;;;99.07;28.93;;;0.90;99.90;;;;;;5158743;28;20216;-47
2023/03/10 04:14:42;;;;;;;146.13;34.97;;;0.90;99.90;;;;;;5149326;28;20472;-47
2023/03/10 04:17:13;;;;;;;210.60;40.57;;;0.90;99.90;;;;;;5147115;28;20255;-51
2023/03/10 04:19:43;;;;;;;100.10;31.67;;;0.90;99.90;;;;;;5146454;28;20232;-47
2023/03/10 04:22:14;;;;;;;111.13;34.67;;;0.90;99.90;;;;;;5145699;28;20209;-48
2023/03/10 04:24:45;;;;;;;129.23;34.47;;;1.00;99.90;;;;;;5144518;28;20190;-47
2023/03/10 04:27:15;;;;;;;118.33;34.67;;;0.90;99.90;;;;;;5148064;28;20267;-47
2023/03/10 04:29:46;;;;;;;135.40;34.50;;;0.90;99.90;;;;;;5155808;28;20212;-48
2023/03/10 04:32:17;;;;;;;102.10;33.03;;;0.90;99.90;;;;;;5145220;28;20165;-48
2023/03/10 04:34:48;;;;;;;140.10;35.33;;;0.90;99.90;;;;;;5147478;28;20212;-47
2023/03/10 04:37:20;;;;;;;100.77;34.47;;;0.90;99.90;;;;;;5146415;28;20786;-47
2023/03/10 04:39:51;;;;;;;141.50;34.47;;;1.00;99.90;;;;;;5139818;28;20584;-52
2023/03/10 04:42:22;;;;;;;173.53;39.17;;;1.00;99.90;;;;;;5158399;28;20489;-48
2023/03/10 04:44:53;;;;;;;87.57;24.90;;;1.00;99.90;;;;;;5140900;28;20185;-48
2023/03/10 04:47:23;;;;;;;103.07;32.27;;;1.10;99.90;;;;;;5152898;28;20471;-47
2023/03/10 04:49:54;;;;;;;91.83;29.33;;;1.00;99.90;;;;;;5145373;28;20271;-49
2023/03/10 04:52:25;;;;;;;105.63;32.73;;;1.00;99.90;;;;;;5149827;28;20178;-48
2023/03/10 04:54:55;;;;;;;138.40;31.87;;;1.00;99.90;;;;;;5143663;28;20281;-48
2023/03/10 04:57:26;;;;;;;105.57;25.97;;;1.10;99.90;;;;;;5147391;28;20186;-49
2023/03/10 04:59:56;;;;;;;80.60;27.77;;;1.10;99.90;;;;;;5141385;28;20643;-48
2023/03/10 05:02:27;;;;;;;75.97;27.93;;;1.20;99.90;;;;;;5143122;28;20198;-49
2023/03/10 05:04:58;;;;;;;83.03;29.20;;;1.10;99.90;;;;;;5141693;28;20194;-48
2023/03/10 05:07:28;;;;;;;136.53;35.93;;;1.10;99.90;;;;;;5148584;28;20221;-49
2023/03/10 05:09:59;;;;;;;114.10;32.80;;;1.10;99.90;;;;;;5148160;28;20363;-48
2023/03/10 05:12:29;;;;;;;125.77;35.00;;;1.10;99.90;;;;;;5143566;28;20530;-48
2023/03/10 05:15:00;;;;;;;81.47;29.90;;;1.10;99.90;;;;;;5145710;28;20186;-48
2023/03/10 05:17:31;;;;;;;124.30;34.53;;;1.10;99.90;;;;;;5153224;28;20212;-48
2023/03/10 05:20:03;;;;;;;100.67;32.97;;;1.10;99.90;;;;;;5160104;28;20218;-49
2023/03/10 05:22:33;;;;;;;112.73;33.20;;;1.10;99.90;;;;;;5144393;28;20202;-47
2023/03/10 05:25:05;;;;;;;154.10;36.40;;;1.10;99.90;;;;;;5145430;28;20445;-49
2023/03/10 05:27:37;;;;;;;87.47;31.13;;;1.10;99.90;;;;;;5149854;28;20733;-48
2023/03/10 05:30:10;;;;;;;97.53;31.37;;;1.10;99.90;;;;;;5150964;28;20481;-48
2023/03/10 05:32:42;;;;;;;102.83;33.67;;;1.10;99.90;;;;;;5147371;28;20715;-47
2023/03/10 05:35:13;;;;;;;89.53;31.00;;;1.10;99.90;;;;;;5143231;28;20444;-49
2023/03/10 05:37:44;;;;;;;92.10;31.57;;;1.10;99.90;;;;;;5147506;28;20441;-47
2023/03/10 05:40:18;;;;;;;72.70;26.93;;;1.10;99.90;;;;;;5144748;28;21223;-49
2023/03/10 05:42:50;;;;;;;83.97;30.93;;;1.10;99.90;;;;;;5144892;28;20177;-48
2023/03/10 05:45:20;;;;;;;102.23;32.13;;;1.10;99.90;;;;;;5150488;28;21029;-50
2023/03/10 05:47:51;;;;;;;102.97;32.70;;;1.10;99.90;;;;;;5152773;28;20465;-48
2023/03/10 05:50:22;;;;;;;86.37;31.07;;;1.10;99.90;;;;;;5145721;28;20670;-48
2023/03/10 05:52:52;;;;;;;78.67;27.67;;;1.10;99.90;;;;;;5151866;28;20192;-48
2023/03/10 05:55:27;;;;;;;86.80;29.77;;;1.10;99.90;;;;;;5145178;28;20174;-48
2023/03/10 05:57:58;;;;;;;113.00;32.47;;;1.10;99.90;;;;;;5145204;28;20187;-49
2023/03/10 06:00:28;;;;;;;123.27;34.60;;;1.10;99.90;;;;;;5140470;28;20458;-49
2023/03/10 06:02:59;;;;;;;104.57;32.93;;;1.10;99.90;;;;;;5144236;28;20191;-49
2023/03/10 06:05:29;;;;;;;100.60;32.57;;;1.10;99.90;;;;;;5147537;28;20233;-50
2023/03/10 06:08:00;;;;;;;96.60;30.93;;;1.10;99.90;;;;;;5135856;28;20699;-48
2023/03/10 06:10:31;;;;;;;117.70;31.20;;;1.20;99.90;;;;;;5148471;28;20264;-48
2023/03/10 06:13:01;;;;;;;112.63;32.77;;;1.20;99.90;;;;;;5142003;28;20191;-50
2023/03/10 06:15:32;;;;;;;110.63;32.83;;;1.20;99.90;;;;;;5145175;28;20184;-49
2023/03/10 06:18:03;;;;;;;101.43;32.80;;;1.20;99.90;;;;;;5141100;28;20722;-50
2023/03/10 06:20:33;;;;;;;106.60;32.90;;;1.20;99.90;;;;;;5138528;28;20558;-49
2023/03/10 06:23:04;;;;;;;102.47;31.87;;;1.30;99.90;;;;;;5157637;28;20593;-48
2023/03/10 06:25:35;;;;;;;147.60;37.00;;;1.20;99.90;;;;;;5150168;28;20212;-49
2023/03/10 06:28:06;;;;;;;168.90;38.43;;;1.30;99.90;;;;;;5150370;28;20314;-52
2023/03/10 06:30:37;;;;;;;92.53;32.27;;;1.30;99.90;;;;;;5144779;28;20467;-52
2023/03/10 06:33:07;;;;;;;90.20;31.00;;;1.30;99.90;;;;;;5148389;28;20806;-47
2023/03/10 06:35:38;;;;;;;126.37;36.30;;;1.30;99.90;;;;;;5146464;28;20432;-47
2023/03/10 06:38:08;;;;;;;102.03;35.13;;;1.30;99.90;;;;;;5147303;28;20188;-47
2023/03/10 06:40:39;;;;;;;152.43;39.63;;;1.40;99.90;;;;;;5140931;28;20221;-47
2023/03/10 06:43:10;;;;;;;102.50;32.30;;;1.40;99.90;;;;;;5143777;28;20211;-49
2023/03/10 06:45:42;;;;;;;120.03;36.37;;;1.40;99.90;;;;;;5145905;28;20224;-48
2023/03/10 06:48:14;;;;;;;131.20;35.33;;;1.50;99.90;;;;;;5120324;28;20232;-47
2023/03/10 06:50:47;;;;;;;128.40;36.20;;;1.50;99.90;;;;;;5126920;28;20463;-48
2023/03/10 06:53:19;;;;;;;134.43;35.60;;;1.60;99.90;;;;;;5142371;28;20439;-48
2023/03/10 06:55:58;;;;;;;111.27;36.87;;;1.60;99.90;;;;;;5141836;28;20437;-49
2023/03/10 06:58:32;;;;;;;159.07;38.97;;;1.60;99.90;;;;;;5143116;28;20928;-47
2023/03/10 07:01:03;;;;;;;141.97;41.07;;;1.60;99.90;;;;;;5138575;28;20955;-50
2023/03/10 07:03:35;;;;;;;105.93;34.80;;;1.70;99.90;;;;;;5141697;28;20448;-48
2023/03/10 07:06:05;;;;;;;158.90;41.10;;;1.70;99.90;;;;;;5124958;28;20493;-48
2023/03/10 07:08:36;;;;;;;143.67;41.87;;;1.70;99.90;;;;;;5146983;28;20516;-49
2023/03/10 07:11:08;;;;;;;141.73;41.97;;;1.70;99.90;;;;;;5139579;28;20189;-49
2023/03/10 07:13:38;;;;;;;188.33;46.70;;;1.70;99.90;;;;;;5135356;28;20225;-48
2023/03/10 07:16:09;;;;;;;143.80;41.33;;;1.80;99.90;;;;;;5125777;28;20541;-51
2023/03/10 07:18:40;;;;;;;169.27;45.33;;;1.80;99.90;;;;;;5122937;28;21334;-49
2023/03/10 07:21:14;;;;;;;148.30;42.13;;;1.80;99.90;;;;;;5119306;28;20185;-52
2023/03/10 07:23:45;;;;;;;122.33;40.30;;;1.90;99.90;;;;;;5127381;28;20181;-47
2023/03/10 07:26:17;;;;;;;129.70;42.37;;;1.90;99.90;;;;;;5144301;28;20440;-48
2023/03/10 07:28:48;;;;;;;157.67;45.33;;;2.00;99.90;;;;;;5143960;28;20449;-47
2023/03/10 07:31:18;;;;;;;166.23;44.97;;;2.10;99.90;;;;;;5141553;28;20461;-49
2023/03/10 07:33:49;;;;;;;127.43;38.37;;;2.10;99.90;;;;;;5141062;28;20216;-52
2023/03/10 07:36:21;;;;;;;169.07;46.43;;;2.20;99.90;;;;;;5141551;28;20716;-50
2023/03/10 07:38:51;;;;;;;122.37;38.60;;;2.20;99.90;;;;;;5134292;28;20278;-50
2023/03/10 07:41:22;;;;;;;131.43;41.33;;;2.30;99.90;;;;;;5144578;28;21106;-49
2023/03/10 07:43:53;;;;;;;128.37;39.10;;;2.30;99.90;;;;;;5148778;28;20181;-49
2023/03/10 07:46:24;;;;;;;119.53;40.40;;;2.20;99.90;;;;;;5142860;28;20295;-48
2023/03/10 07:48:57;;;;;;;181.77;47.17;;;2.20;99.90;;;;;;5143291;28;20548;-48
2023/03/10 07:51:27;;;;;;;72.33;27.70;;;2.20;99.90;;;;;;5140907;28;20213;-48
2023/03/10 07:53:58;;;;;;;135.20;39.80;;;2.40;99.90;;;;;;5141922;28;20480;-49
2023/03/10 07:56:29;;;;;;;173.67;43.07;;;2.40;99.90;;;;;;5143604;28;20185;-49
2023/03/10 07:58:59;;;;;;;135.17;39.47;;;2.40;99.90;;;;;;5140705;28;20219;-49
2023/03/10 08:01:30;;;;;;;88.93;34.67;;;2.40;99.90;;;;;;5137668;28;20221;-48
2023/03/10 08:04:01;;;;;;;76.27;31.33;;;2.40;99.90;;;;;;5141211;28;20190;-48
2023/03/10 08:06:32;;;;;;;90.40;35.80;;;2.40;99.90;;;;;;5136011;28;20237;-49
2023/03/10 08:09:03;;;;;;;124.50;37.77;;;2.40;99.90;;;;;;5142981;28;20633;-50
2023/03/10 08:11:33;;;;;;;81.77;27.43;;;2.40;99.90;;;;;;5139969;28;20436;-51
2023/03/10 08:14:04;;;;;;;77.50;27.30;;;2.40;99.90;;;;;;5127263;28;20264;-48
2023/03/10 08:16:36;;;;;;;101.57;32.90;;;2.70;99.90;;;;;;5122686;28;20184;-48
2023/03/10 08:19:07;;;;;;;110.90;36.30;;;2.70;99.90;;;;;;5115130;28;20686;-48
2023/03/10 08:21:37;;;;;;;113.23;38.93;;;2.90;99.90;;;;;;5125503;28;20441;-49
2023/03/10 08:24:09;;;;;;;80.40;33.27;;;3.00;99.90;;;;;;5137265;28;20670;-51
2023/03/10 08:26:40;;;;;;;98.50;36.50;;;2.90;99.90;;;;;;5140003;28;20409;-48
2023/03/10 08:29:10;;;;;;;104.57;39.00;;;2.90;99.90;;;;;;5143691;28;20931;-48
2023/03/10 08:31:41;;;;;;;81.47;34.00;;;2.90;99.90;;;;;;5140143;28;20182;-50
2023/03/10 08:34:13;;;;;;;113.53;38.23;;;3.00;99.90;;;;;;5142960;28;20173;-50
2023/03/10 08:36:44;;;;;;;120.63;37.43;;;3.00;99.90;;;;;;5147952;28;20177;-48
2023/03/10 08:39:15;;;;;;;102.60;36.27;;;3.00;99.90;;;;;;5146888;28;21000;-48
2023/03/10 08:41:48;;;;;;;132.40;41.90;;;3.00;99.90;;;;;;5146480;28;20196;-48
2023/03/10 08:44:20;;;;;;;96.73;37.17;;;3.00;99.90;;;;;;5147481;28;20190;-48
2023/03/10 08:46:51;;;;;;;93.63;36.00;;;3.10;99.90;;;;;;5144387;28;20467;-48
2023/03/10 08:49:22;;;;;;;116.90;39.53;;;3.00;99.90;;;;;;5144426;28;20933;-52
2023/03/10 08:51:53;;;;;;;116.80;37.90;;;3.10;99.90;;;;;;5145385;28;20213;-52
2023/03/10 08:54:23;;;;;;;120.37;39.63;;;3.20;99.90;;;;;;5145134;28;20175;-51
2023/03/10 08:56:54;;;;;;;112.10;36.00;;;3.30;99.90;;;;;;5146635;28;20288;-55
2023/03/10 08:59:24;;;;;;;123.63;40.17;;;3.30;99.90;;;;;;5145468;28;20216;-56
2023/03/10 09:01:55;;;;;;;93.20;36.57;;;3.40;99.90;;;;;;5147906;28;20227;-52
2023/03/10 09:04:26;;;;;;;89.73;32.30;;;3.40;99.90;;;;;;5143008;28;20538;-52
2023/03/10 09:06:56;;;;;;;110.00;39.53;;;3.40;99.90;;;;;;5146982;28;20205;-53
2023/03/10 09:09:27;;;;;;;105.97;33.60;;;3.40;99.90;;;;;;5141628;28;20198;-48
2023/03/10 09:11:57;;;;;;;117.80;39.73;;;3.50;99.90;;;;;;5146732;28;20248;-52
2023/03/10 09:14:28;;;;;;;69.23;28.77;;;3.50;99.90;;;;;;5147729;28;20189;-53
2023/03/10 09:16:59;;;;;;;101.33;36.27;;;3.50;99.90;;;;;;5143783;28;20185;-54
2023/03/10 09:19:29;;;;;;;71.87;28.40;;;3.50;99.90;;;;;;5144521;28;20241;-49
2023/03/10 09:22:00;;;;;;;81.73;32.83;;;3.60;99.90;;;;;;5146018;28;20216;-50
2023/03/10 09:24:30;;;;;;;67.33;29.07;;;3.80;99.90;;;;;;5142912;28;20186;-50
2023/03/10 09:27:01;;;;;;;114.80;37.33;;;3.80;99.90;;;;;;5145374;28;20217;-53
2023/03/10 09:29:34;;;;;;;84.37;32.17;;;3.80;99.90;;;;;;5142052;28;20211;-50
2023/03/10 09:32:05;;;;;;;148.63;43.53;;;4.00;99.90;;;;;;5144315;28;20188;-49
2023/03/10 09:34:35;;;;;;;59.47;26.60;;;4.10;99.90;;;;;;5140505;28;20445;-51
2023/03/10 09:37:06;;;;;;;75.87;37.07;;;4.40;99.90;;;;;;5147223;28;20856;-52
2023/03/10 09:39:36;;;;;;;123.90;41.57;;;4.40;99.90;;;;;;5162486;23;20212;-55
2023/03/10 09:42:26;;;;;;;85.77;31.83;;;4.60;99.90;;;;;;5167219;28;20184;-55
2023/03/10 09:45:09;;;;;;;56.63;30.87;;;5.00;99.90;;;;;;5167844;28;20184;-54
2023/03/10 09:47:48;;;;;;;60.03;31.87;;;5.00;99.90;;;;;;5163310;28;20985;-55
2023/03/10 09:50:41;;;;;;;56.73;33.10;;;5.10;99.90;;;;;;5158176;28;20874;-54
2023/03/10 09:53:33;;;;;;;52.57;29.47;;;5.50;99.90;;;;;;5149348;28;20498;-53
2023/03/10 09:56:14;;;;;;;48.07;28.53;;;5.80;99.90;;;;;;5140932;28;20453;-55
2023/03/10 09:58:49;;;;;;;49.73;25.47;;;5.90;99.90;;;;;;5147064;28;21002;-55
2023/03/10 10:01:23;;;;;;;82.03;38.83;;;5.70;99.90;;;;;;5152029;28;20915;-54
2023/03/10 10:04:12;;;;;;;52.67;26.87;;;5.50;99.90;;;;;;5145591;28;20550;-55
2023/03/10 10:06:45;;;;;;;39.40;24.33;;;5.40;99.90;;;;;;5134853;28;20457;-55
2023/03/10 10:09:52;;;;;;;37.73;22.70;;;5.30;99.90;;;;;;5140044;28;20455;-55
2023/03/10 10:12:25;;;;;;;76.47;31.87;;;5.40;99.90;;;;;;5141759;28;20467;-55
2023/03/10 10:15:13;;;;;;;52.50;27.13;;;5.40;99.90;;;;;;5144053;28;20495;-55
2023/03/10 10:18:06;;;;;;;140.87;52.80;;;5.50;99.90;;;;;;5149915;28;20844;-56
2023/03/10 10:20:52;;;;;;;82.83;34.30;;;5.80;99.90;;;;;;5140890;28;20547;-55
2023/03/10 10:23:40;;;;;;;39.93;20.27;;;6.00;99.90;;;;;;5140823;28;20495;-56
2023/03/10 10:26:18;;;;;;;53.67;25.03;;;6.10;99.90;;;;;;5143273;28;20432;-54
2023/03/10 10:29:06;;;;;;;41.37;21.30;;;6.00;99.90;;;;;;5152027;28;20591;-55
2023/03/10 10:31:37;;;;;;;41.50;21.67;;;6.10;99.90;;;;;;5152776;28;20448;-56
2023/03/10 10:34:21;;;;;;;39.77;21.67;;;6.30;99.90;;;;;;5143464;28;20437;-56
2023/03/10 10:36:55;;;;;;;42.10;20.43;;;6.50;99.90;;;;;;5137887;28;20190;-54
2023/03/10 10:39:41;;;;;;;34.37;20.00;;;6.60;99.90;;;;;;5148042;28;20547;-55
2023/03/10 10:42:29;;;;;;;48.70;22.30;;;6.60;99.90;;;;;;5142420;28;20445;-54
2023/03/10 10:45:22;;;;;;;20.17;14.53;;;6.50;99.90;;;;;;5137289;28;20485;-55
2023/03/10 10:47:54;;;;;;;23.60;15.57;;;6.60;99.90;;;;;;5143646;28;20519;-55
2023/03/10 10:50:27;;;;;;;41.33;22.63;;;6.80;99.90;;;;;;5150615;28;20460;-54
2023/03/10 10:53:23;;;;;;;25.67;16.60;;;6.90;99.90;;;;;;5145214;28;20429;-55
2023/03/10 10:56:11;;;;;;;31.03;17.93;;;6.80;99.90;;;;;;5141257;28;20527;-55
2023/03/10 10:58:44;;;;;;;26.10;15.47;;;6.90;99.90;;;;;;5134846;28;21014;-54
2023/03/10 11:01:16;;;;;;;33.13;18.30;;;6.90;99.90;;;;;;5137471;28;20573;-55
2023/03/10 11:03:47;;;;;;;31.33;19.00;;;7.00;99.90;;;;;;5138595;28;21003;-55
2023/03/10 11:06:26;;;;;;;25.87;17.37;;;7.00;99.90;;;;;;5143905;28;20649;-54
2023/03/10 11:09:12;;;;;;;23.83;15.90;;;7.20;99.90;;;;;;5124197;28;20460;-54
2023/03/10 11:12:00;;;;;;;27.53;16.33;;;7.30;99.90;;;;;;5159423;28;20432;-55
2023/03/10 11:14:52;;;;;;;35.37;17.47;;;7.40;99.90;;;;;;5135253;28;20425;-54
2023/03/10 11:17:30;;;;;;;23.17;16.43;;;7.30;99.90;;;;;;5142988;28;20465;-54
2023/03/10 11:20:32;;;;;;;28.70;17.73;;;7.30;99.90;;;;;;5148190;28;20968;-54
2023/03/10 11:23:24;;;;;;;20.53;13.80;;;7.20;99.90;;;;;;5150803;28;20440;-55
2023/03/10 11:26:05;;;;;;;29.17;17.70;;;7.20;99.90;;;;;;5146624;28;20483;-54
2023/03/10 11:28:51;;;;;;;32.00;18.90;;;7.40;99.90;;;;;;5145886;28;20468;-55
2023/03/10 11:31:37;;;;;;;18.60;15.10;;;7.60;99.90;;;;;;5135924;28;20860;-54
2023/03/10 11:34:20;;;;;;;25.70;16.40;;;7.90;99.90;;;;;;5142048;28;20429;-55
2023/03/10 11:37:13;;;;;;;19.77;14.17;;;8.00;99.90;;;;;;5142452;28;20449;-54
2023/03/10 11:40:18;;;;;;;22.37;14.13;;;8.20;99.90;;;;;;5142001;28;20512;-55
2023/03/10 11:42:52;;;;;;;20.30;13.13;;;8.20;99.90;;;;;;5143195;28;20445;-54
2023/03/10 11:45:58;;;;;;;18.27;12.40;;;8.10;99.90;;;;;;5143701;28;20445;-55
2023/03/10 11:48:38;;;;;;;14.23;11.40;;;8.10;99.90;;;;;;5148960;28;20631;-54
2023/03/10 11:51:26;;;;;;;15.50;12.23;;;8.20;99.90;;;;;;5143718;28;20827;-55
2023/03/10 11:54:02;;;;;;;15.50;10.40;;;8.10;99.90;;;;;;5139302;28;20441;-55
2023/03/10 11:56:33;;;;;;;21.77;14.10;;;7.90;99.90;;;;;;5138280;28;21023;-54
2023/03/10 11:59:21;;;;;;;19.40;11.57;;;7.80;99.90;;;;;;5141707;28;20552;-54
2023/03/10 12:02:04;;;;;;;17.70;11.40;;;7.90;99.90;;;;;;5140616;28;20476;-55
2023/03/10 12:04:59;;;;;;;13.20;11.47;;;7.90;99.90;;;;;;5138199;28;20472;-55
2023/03/10 12:07:43;;;;;;;21.37;11.80;;;7.90;99.90;;;;;;5139434;28;20571;-55
2023/03/10 12:10:17;;;;;;;17.23;12.17;;;7.80;99.90;;;;;;5149322;28;20456;-55
2023/03/10 12:12:49;;;;;;;26.23;10.67;;;7.80;99.90;;;;;;5143450;28;20421;-56
2023/03/10 12:15:25;;;;;;;19.70;12.70;;;7.70;99.90;;;;;;5140252;28;20477;-55
2023/03/10 12:17:56;;;;;;;25.83;14.63;;;7.50;99.90;;;;;;5138275;28;20803;-55
2023/03/10 12:20:29;;;;;;;20.00;14.33;;;7.50;99.90;;;;;;5141763;28;20465;-56
2023/03/10 12:23:09;;;;;;;19.83;13.67;;;7.50;99.90;;;;;;5143835;28;20553;-54
2023/03/10 12:25:45;;;;;;;15.73;11.53;;;7.60;99.90;;;;;;5134827;28;20442;-56
2023/03/10 12:28:15;;;;;;;25.43;13.80;;;7.60;99.90;;;;;;5144491;28;20563;-53
2023/03/10 12:30:55;;;;;;;23.50;14.23;;;7.60;99.90;;;;;;5142985;28;20571;-55
2023/03/10 12:33:44;;;;;;;12.67;11.30;;;7.60;99.90;;;;;;5141666;28;20504;-54
2023/03/10 12:36:17;;;;;;;22.47;13.40;;;7.40;99.90;;;;;;5140097;28;20460;-53
2023/03/10 12:38:50;;;;;;;15.53;11.43;;;7.40;99.90;;;;;;5135676;28;20441;-53
2023/03/10 12:41:27;;;;;;;28.10;13.90;;;7.60;99.90;;;;;;5138548;28;20582;-54
2023/03/10 12:44:21;;;;;;;18.20;11.47;;;7.70;99.90;;;;;;5140054;28;20431;-55
2023/03/10 12:47:12;;;;;;;12.43;9.17;;;7.60;99.90;;;;;;5140173;28;20518;-53
2023/03/10 12:49:54;;;;;;;12.80;8.60;;;7.40;99.90;;;;;;5140389;28;20453;-54
2023/03/10 12:52:58;;;;;;;9.87;8.27;;;7.30;99.90;;;;;;5131167;28;20450;-53
2023/03/10 12:55:29;;;;;;;13.57;9.20;;;7.20;99.90;;;;;;5140339;28;20524;-54
2023/03/10 12:58:08;;;;;;;8.70;7.90;;;7.10;99.90;;;;;;5142376;28;21088;-54
2023/03/10 13:00:55;;;;;;;8.63;7.73;;;7.00;99.90;;;;;;5134399;28;20213;-55
2023/03/10 13:03:40;;;;;;;9.77;7.07;;;7.20;99.90;;;;;;5131697;28;20444;-54
2023/03/10 13:06:13;;;;;;;11.80;7.30;;;7.50;99.90;;;;;;5136971;28;20445;-53
2023/03/10 13:08:57;;;;;;;8.60;7.53;;;7.90;99.90;;;;;;5150225;28;20471;-53